Time;durP1;ratioP1;P1;durP2;ratioP2;P2;SDS_P1;SDS_P2;PMS_P1;PMS_P2;Temp;Humidity;BMP_temperature;BMP_pressure;BME280_temperature;BME280_humidity;BME280_pressure;Samples;Min_cycle;Max_cycle;Signal;HPM_P1;HPM_P2
2021/07/16 00:00:53;;;;;;;;;;;16.10;99.90;;;;;;4958910;29;20365;-78
2021/07/16 00:03:19;;;;;;;;;;;16.10;99.90;;;;;;4956465;29;19911;-79
2021/07/16 00:05:44;;;;;;;;;;;16.10;99.90;;;;;;4973848;28;19996;-78
2021/07/16 00:08:10;;;;;;;;;;;16.00;99.90;;;;;;4958008;29;19911;-78
2021/07/16 00:10:35;;;;;;;;;;;16.00;99.90;;;;;;4958540;29;19910;-77
2021/07/16 00:13:01;;;;;;;;;;;15.90;99.90;;;;;;4946804;29;20402;-78
2021/07/16 00:15:26;;;;;;;;;;;15.90;99.90;;;;;;4939468;29;19965;-78
2021/07/16 00:17:52;;;;;;;;;;;15.90;99.90;;;;;;4938912;29;19906;-78
2021/07/16 00:20:18;;;;;;;;;;;15.80;99.90;;;;;;4939150;29;19914;-78
2021/07/16 00:22:43;;;;;;;;;;;15.80;99.90;;;;;;4939122;29;20005;-78
2021/07/16 00:25:09;;;;;;;;;;;15.80;99.90;;;;;;4939287;29;19939;-78
2021/07/16 00:27:35;;;;;;;;;;;15.80;99.90;;;;;;4939348;29;19907;-78
2021/07/16 00:30:01;;;;;;;;;;;15.70;99.90;;;;;;4957801;28;19945;-76
2021/07/16 00:32:26;;;;;;;;;;;15.70;99.90;;;;;;4939667;29;19906;-77
2021/07/16 00:34:52;;;;;;;;;;;15.70;99.90;;;;;;4957940;29;19965;-78
2021/07/16 00:37:18;;;;;;;;;;;15.60;99.90;;;;;;4957921;29;20000;-78
2021/07/16 00:39:43;;;;;;;;;;;15.60;99.90;;;;;;4952096;28;19914;-78
2021/07/16 00:42:09;;;;;;;;;;;15.70;99.90;;;;;;4938062;29;20022;-77
2021/07/16 00:44:35;;;;;;;;;;;15.60;99.90;;;;;;4934521;29;19918;-79
2021/07/16 00:47:01;;;;;;;;;;;15.70;99.90;;;;;;4954760;29;20448;-78
2021/07/16 00:49:28;;;;;;;;;;;15.70;99.90;;;;;;4957802;28;19907;-76
2021/07/16 00:51:54;;;;;;;;;;;15.70;99.90;;;;;;4956172;28;19918;-78
2021/07/16 00:54:19;;;;;;;;;;;15.80;99.90;;;;;;4957476;28;19906;-78
2021/07/16 00:56:45;;;;;;;;;;;15.80;99.90;;;;;;4958493;28;19916;-78
2021/07/16 00:59:14;;;;;;;;;;;15.80;99.90;;;;;;4958441;29;19914;-77
2021/07/16 01:01:41;;;;;;;;;;;15.80;99.90;;;;;;4940958;29;19917;-78
2021/07/16 01:04:06;;;;;;;;;;;15.80;99.90;;;;;;4938868;29;20372;-78
2021/07/16 01:06:32;;;;;;;;;;;16.20;99.90;;;;;;4953346;29;19906;-78
2021/07/16 01:08:57;;;;;;;;;;;15.80;99.90;;;;;;4938397;29;19965;-78
2021/07/16 01:11:23;;;;;;;;;;;15.80;99.90;;;;;;4958752;28;19914;-78
2021/07/16 01:13:48;;;;;;;;;;;15.70;99.90;;;;;;4973916;28;20396;-78
2021/07/16 01:16:14;;;;;;;;;;;15.70;99.90;;;;;;4957641;28;20364;-78
2021/07/16 01:18:40;;;;;;;;;;;15.70;99.90;;;;;;4965395;28;19932;-78
2021/07/16 01:21:05;;;;;;;;;;;15.70;99.90;;;;;;4973991;28;20070;-78
2021/07/16 01:23:31;;;;;;;;;;;15.70;99.90;;;;;;4957530;28;19962;-78
2021/07/16 01:25:57;;;;;;;;;;;15.70;99.90;;;;;;4961713;28;19910;-78
2021/07/16 01:28:22;;;;;;;;;;;15.70;99.90;;;;;;4976457;28;19910;-78
2021/07/16 01:30:51;;;;;;;;;;;15.70;99.90;;;;;;4969231;28;19906;-77
2021/07/16 01:33:17;;;;;;;;;;;15.70;99.90;;;;;;4943453;28;19966;-78
2021/07/16 01:35:42;;;;;;;;;;;15.80;99.90;;;;;;4973203;28;19910;-78
2021/07/16 01:38:08;;;;;;;;;;;15.80;99.90;;;;;;4976233;28;19917;-78
2021/07/16 01:40:37;;;;;;;;;;;15.80;99.90;;;;;;4961926;28;19917;-79
2021/07/16 01:43:07;;;;;;;;;;;15.80;99.90;;;;;;4935019;29;20005;-78
2021/07/16 01:45:34;;;;;;;;;;;15.70;99.90;;;;;;4937598;29;19934;-78
2021/07/16 01:48:01;;;;;;;;;;;15.70;99.90;;;;;;4946024;29;20449;-78
2021/07/16 01:50:27;;;;;;;;;;;15.70;99.90;;;;;;4946840;28;19919;-78
2021/07/16 01:52:54;;;;;;;;;;;15.70;99.90;;;;;;4972537;28;19906;-78
2021/07/16 01:55:20;;;;;;;;;;;15.70;99.90;;;;;;4976111;28;19913;-79
2021/07/16 01:57:50;;;;;;;;;;;15.70;99.90;;;;;;4974778;28;19914;-79
2021/07/16 02:00:17;;;;;;;;;;;15.70;99.90;;;;;;4956605;28;19949;-79
2021/07/16 02:03:06;;;;;;;;;;;15.70;99.90;;;;;;4936448;29;19911;-78
2021/07/16 02:05:32;;;;;;;;;;;15.70;99.90;;;;;;4934300;29;19910;-78
2021/07/16 02:07:58;;;;;;;;;;;15.70;99.90;;;;;;4936755;29;19998;-78
2021/07/16 02:10:27;;;;;;;;;;;15.70;99.90;;;;;;4935074;29;19921;-78
2021/07/16 02:12:53;;;;;;;;;;;15.70;99.90;;;;;;4939003;29;19907;-78
2021/07/16 02:15:19;;;;;;;;;;;15.70;99.90;;;;;;4956273;28;20320;-78
2021/07/16 02:17:45;;;;;;;;;;;15.70;99.90;;;;;;4939254;28;19938;-78
2021/07/16 02:20:18;;;;;;;;;;;15.70;99.90;;;;;;4951853;29;19914;-78
2021/07/16 02:22:44;;;;;;;;;;;15.70;99.90;;;;;;4937001;29;19913;-78
2021/07/16 02:25:09;;;;;;;;;;;15.70;99.90;;;;;;4942758;28;19914;-78
2021/07/16 02:27:35;;;;;;;;;;;15.70;99.90;;;;;;4946096;28;19911;-78
2021/07/16 02:30:00;;;;;;;;;;;15.70;99.90;;;;;;4938382;29;19913;-79
2021/07/16 02:32:26;;;;;;;;;;;15.60;99.90;;;;;;4933865;29;20269;-79
2021/07/16 02:34:51;;;;;;;;;;;15.70;99.90;;;;;;4956992;29;19961;-78
2021/07/16 02:37:17;;;;;;;;;;;15.60;99.90;;;;;;4957280;29;19907;-79
2021/07/16 02:39:42;;;;;;;;;;;15.60;99.90;;;;;;4954931;29;19918;-78
2021/07/16 02:42:08;;;;;;;;;;;15.60;99.90;;;;;;4941941;29;20001;-78
2021/07/16 02:44:33;;;;;;;;;;;15.60;99.90;;;;;;4937595;29;19936;-79
2021/07/16 02:46:59;;;;;;;;;;;15.60;99.90;;;;;;4935805;29;19914;-78
2021/07/16 02:49:24;;;;;;;;;;;15.60;99.90;;;;;;4952482;29;19997;-78
2021/07/16 02:51:50;;;;;;;;;;;15.50;99.90;;;;;;4937188;29;19907;-78
2021/07/16 02:54:15;;;;;;;;;;;15.50;99.90;;;;;;4937144;29;19907;-79
2021/07/16 02:56:41;;;;;;;;;;;15.50;99.90;;;;;;4937710;29;19907;-78
2021/07/16 02:59:06;;;;;;;;;;;15.50;99.90;;;;;;4936533;29;19914;-78
2021/07/16 03:01:32;;;;;;;;;;;15.40;99.90;;;;;;4936470;29;19962;-79
2021/07/16 03:03:57;;;;;;;;;;;15.40;99.90;;;;;;4937451;29;20420;-79
2021/07/16 03:06:23;;;;;;;;;;;15.40;99.90;;;;;;4943881;28;19920;-78
2021/07/16 03:08:49;;;;;;;;;;;15.40;99.90;;;;;;4962388;28;19910;-78
2021/07/16 03:11:14;;;;;;;;;;;15.40;99.90;;;;;;4958527;28;19907;-78
2021/07/16 03:13:40;;;;;;;;;;;15.40;99.90;;;;;;4975553;28;19944;-78
2021/07/16 03:16:05;;;;;;;;;;;15.40;99.90;;;;;;4968711;28;20048;-77
2021/07/16 03:18:30;;;;;;;;;;;15.40;99.90;;;;;;4955716;29;19918;-78
2021/07/16 03:20:56;;;;;;;;;;;15.40;99.90;;;;;;4955863;29;19917;-78
2021/07/16 03:23:22;;;;;;;;;;;15.40;99.90;;;;;;4971037;28;19914;-78
2021/07/16 03:25:47;;;;;;;;;;;15.40;99.90;;;;;;4983790;28;20369;-78
2021/07/16 03:28:13;;;;;;;;;;;15.40;99.90;;;;;;4975372;28;20326;-77
2021/07/16 03:30:38;;;;;;;;;;;15.50;99.90;;;;;;4972702;28;19921;-77
2021/07/16 03:33:04;;;;;;;;;;;15.50;99.90;;;;;;4939540;28;19921;-79
2021/07/16 03:35:30;;;;;;;;;;;15.50;99.90;;;;;;4955620;28;20005;-78
2021/07/16 03:37:56;;;;;;;;;;;15.50;99.90;;;;;;4955146;28;20376;-78
2021/07/16 03:40:23;;;;;;;;;;;15.50;99.90;;;;;;4954420;29;20179;-79
2021/07/16 03:42:49;;;;;;;;;;;15.60;99.90;;;;;;4970343;28;19921;-78
2021/07/16 03:45:15;;;;;;;;;;;15.60;99.90;;;;;;4975318;28;20463;-78
2021/07/16 03:47:45;;;;;;;;;;;15.60;99.90;;;;;;4969512;28;19906;-79
2021/07/16 03:50:11;;;;;;;;;;;15.60;99.90;;;;;;4953208;29;20413;-79
2021/07/16 03:52:37;;;;;;;;;;;15.60;99.90;;;;;;4955508;28;19961;-78
2021/07/16 03:55:05;;;;;;;;;;;15.60;99.90;;;;;;4955945;29;20293;-79
2021/07/16 03:57:32;;;;;;;;;;;15.60;99.90;;;;;;4943219;28;19933;-79
2021/07/16 04:00:01;;;;;;;;;;;15.70;99.90;;;;;;4955169;29;19914;-78
2021/07/16 04:02:26;;;;;;;;;;;15.70;99.90;;;;;;4961010;28;19910;-77
2021/07/16 04:04:53;;;;;;;;;;;15.70;99.90;;;;;;4940074;29;19914;-78
2021/07/16 04:07:22;;;;;;;;;;;15.70;99.90;;;;;;4951359;29;20397;-78
2021/07/16 04:09:48;;;;;;;;;;;15.70;99.90;;;;;;4958164;28;19938;-77
2021/07/16 04:12:18;;;;;;;;;;;15.70;99.90;;;;;;4958204;28;19910;-78
2021/07/16 04:14:46;;;;;;;;;;;15.70;99.90;;;;;;4955514;28;19922;-78
2021/07/16 04:17:13;;;;;;;;;;;15.80;99.90;;;;;;4963796;28;20305;-77
2021/07/16 04:19:39;;;;;;;;;;;15.80;99.90;;;;;;4957277;28;19910;-77
2021/07/16 04:22:05;;;;;;;;;;;15.80;99.90;;;;;;4949191;28;20284;-77
2021/07/16 04:24:33;;;;;;;;;;;15.80;99.90;;;;;;4960321;28;19907;-78
2021/07/16 04:26:58;;;;;;;;;;;15.80;99.90;;;;;;4971824;28;19906;-77
2021/07/16 04:29:24;;;;;;;;;;;15.80;99.90;;;;;;4971407;28;19917;-78
2021/07/16 04:31:49;;;;;;;;;;;15.80;99.90;;;;;;4966248;28;20145;-78
2021/07/16 04:34:15;;;;;;;;;;;15.80;99.90;;;;;;4956256;28;19958;-78
2021/07/16 04:36:41;;;;;;;;;;;15.90;99.90;;;;;;4972679;28;19910;-77
2021/07/16 04:39:06;;;;;;;;;;;15.90;99.90;;;;;;4974213;28;19914;-78
2021/07/16 04:41:32;;;;;;;;;;;15.90;99.90;;;;;;4969333;28;20020;-78
2021/07/16 04:43:58;;;;;;;;;;;15.90;99.90;;;;;;4956199;28;19914;-77
2021/07/16 04:46:25;;;;;;;;;;;15.90;99.90;;;;;;4960261;28;19914;-77
2021/07/16 04:48:55;;;;;;;;;;;15.80;99.90;;;;;;4973655;28;20320;-78
2021/07/16 04:51:28;;;;;;;;;;;15.80;99.90;;;;;;4959405;28;20380;-78
2021/07/16 04:53:54;;;;;;;;;;;15.80;99.90;;;;;;4970802;28;19910;-77
2021/07/16 04:56:19;;;;;;;;;;;15.80;99.90;;;;;;4970598;28;19932;-76
2021/07/16 04:58:45;;;;;;;;;;;15.80;99.90;;;;;;4970014;28;19914;-77
2021/07/16 05:01:11;;;;;;;;;;;15.80;99.90;;;;;;4968511;28;19981;-77
2021/07/16 05:03:36;;;;;;;;;;;15.70;99.90;;;;;;4973446;28;19906;-78
2021/07/16 05:06:02;;;;;;;;;;;15.80;99.90;;;;;;4970068;28;19976;-78
2021/07/16 05:08:28;;;;;;;;;;;15.80;99.90;;;;;;4969637;28;19910;-77
2021/07/16 05:10:54;;;;;;;;;;;15.80;99.90;;;;;;4970945;28;19906;-77
2021/07/16 05:13:19;;;;;;;;;;;15.80;99.90;;;;;;4970620;28;19964;-77
2021/07/16 05:15:45;;;;;;;;;;;15.80;99.90;;;;;;4971484;28;19910;-78
2021/07/16 05:18:10;;;;;;;;;;;15.80;99.90;;;;;;4968074;28;20008;-78
2021/07/16 05:20:36;;;;;;;;;;;15.80;99.90;;;;;;4985011;28;19914;-76
2021/07/16 05:23:01;;;;;;;;;;;15.90;99.90;;;;;;4969911;28;19910;-77
2021/07/16 05:25:27;;;;;;;;;;;15.90;99.90;;;;;;4967040;28;19914;-78
2021/07/16 05:27:52;;;;;;;;;;;15.90;99.90;;;;;;4971999;28;19910;-78
2021/07/16 05:30:18;;;;;;;;;;;16.00;99.90;;;;;;4973329;28;19964;-77
2021/07/16 05:32:43;;;;;;;;;;;16.00;99.90;;;;;;4959284;28;20004;-79
2021/07/16 05:35:09;;;;;;;;;;;16.00;99.90;;;;;;4972458;28;19997;-79
2021/07/16 05:37:35;;;;;;;;;;;16.00;99.90;;;;;;4971491;28;19994;-79
2021/07/16 05:40:00;;;;;;;;;;;16.00;99.90;;;;;;4957504;28;19929;-79
2021/07/16 05:42:26;;;;;;;;;;;16.00;99.90;;;;;;4966628;28;21250;-78
2021/07/16 05:44:51;;;;;;;;;;;16.00;99.90;;;;;;4969163;28;19906;-79
2021/07/16 05:47:17;;;;;;;;;;;16.10;99.90;;;;;;4970207;28;19940;-78
2021/07/16 05:49:43;;;;;;;;;;;16.10;99.90;;;;;;4960088;28;19981;-79
2021/07/16 05:52:08;;;;;;;;;;;16.20;99.90;;;;;;4973910;28;19941;-77
2021/07/16 05:54:34;;;;;;;;;;;16.20;99.90;;;;;;4971625;28;20335;-79
2021/07/16 05:56:59;;;;;;;;;;;16.30;99.90;;;;;;4970070;28;20139;-79
2021/07/16 05:59:25;;;;;;;;;;;16.30;99.90;;;;;;4954243;28;19977;-80
2021/07/16 06:01:50;;;;;;;;;;;16.50;99.90;;;;;;4965427;28;19910;-80
2021/07/16 06:04:16;;;;;;;;;;;16.60;99.90;;;;;;4969629;28;19941;-80
2021/07/16 06:06:41;;;;;;;;;;;16.70;99.90;;;;;;4971792;28;19906;-79
2021/07/16 06:09:07;;;;;;;;;;;16.60;99.90;;;;;;4969342;28;20368;-79
2021/07/16 06:11:33;;;;;;;;;;;16.60;99.90;;;;;;4972462;28;19917;-79
2021/07/16 06:13:59;;;;;;;;;;;16.60;99.90;;;;;;4974453;28;19906;-79
2021/07/16 06:16:25;;;;;;;;;;;16.60;99.90;;;;;;4969935;28;19969;-79
2021/07/16 06:18:50;;;;;;;;;;;16.60;99.90;;;;;;4972899;28;20061;-79
2021/07/16 06:21:16;;;;;;;;;;;16.60;99.90;;;;;;4970424;28;20317;-79
2021/07/16 06:23:41;;;;;;;;;;;16.70;99.90;;;;;;4954810;28;19953;-78
2021/07/16 06:26:07;;;;;;;;;;;16.60;99.90;;;;;;4967866;28;19917;-78
2021/07/16 06:28:32;;;;;;;;;;;16.60;99.90;;;;;;4967568;28;19914;-80
2021/07/16 06:30:58;;;;;;;;;;;16.60;99.90;;;;;;4974200;28;19914;-79
2021/07/16 06:33:23;;;;;;;;;;;16.60;99.90;;;;;;4970933;28;20009;-78
2021/07/16 06:35:49;;;;;;;;;;;16.60;99.90;;;;;;4968620;28;20396;-79
2021/07/16 06:38:14;;;;;;;;;;;16.70;99.90;;;;;;4943425;28;19949;-78
2021/07/16 06:40:40;;;;;;;;;;;16.90;99.90;;;;;;4966775;28;20365;-78
2021/07/16 06:43:09;;;;;;;;;;;17.00;99.90;;;;;;4967485;28;20358;-79
2021/07/16 06:45:38;;;;;;;;;;;17.10;99.90;;;;;;4965656;28;19907;-78
2021/07/16 06:48:04;;;;;;;;;;;17.20;99.90;;;;;;4968407;28;20017;-78
2021/07/16 06:50:29;;;;;;;;;;;17.30;99.90;;;;;;4962516;28;19922;-79
2021/07/16 06:52:55;;;;;;;;;;;17.50;99.90;;;;;;4967264;28;19963;-78
2021/07/16 06:55:21;;;;;;;;;;;17.60;99.90;;;;;;4972060;28;19906;-78
2021/07/16 06:57:46;;;;;;;;;;;17.70;99.90;;;;;;4969143;28;20427;-78
2021/07/16 07:00:12;;;;;;;;;;;17.80;99.90;;;;;;4971490;28;20005;-79
2021/07/16 07:02:38;;;;;;;;;;;18.00;99.90;;;;;;4967307;28;19976;-80
2021/07/16 07:05:04;;;;;;;;;;;18.30;99.90;;;;;;4966159;28;19963;-79
2021/07/16 07:07:30;;;;;;;;;;;18.50;99.90;;;;;;4961752;28;19914;-79
2021/07/16 07:09:55;;;;;;;;;;;18.60;99.90;;;;;;4961056;28;20480;-79
2021/07/16 07:12:21;;;;;;;;;;;18.80;99.90;;;;;;4967912;28;19930;-79
2021/07/16 07:14:47;;;;;;;;;;;18.90;99.90;;;;;;4965329;28;20311;-79
2021/07/16 07:17:13;;;;;;;;;;;18.80;99.90;;;;;;4971821;28;19909;-79
2021/07/16 07:19:38;;;;;;;;;;;18.90;99.90;;;;;;4968657;28;20404;-80
2021/07/16 07:22:04;;;;;;;;;;;19.10;99.90;;;;;;4966796;28;19969;-80
2021/07/16 07:24:29;;;;;;;;;;;19.20;99.90;;;;;;4964721;28;19960;-80
2021/07/16 07:26:57;;;;;;;;;;;19.10;99.90;;;;;;4963155;28;20292;-80
2021/07/16 07:29:23;;;;;;;;;;;19.30;99.90;;;;;;4950660;28;19922;-80
2021/07/16 07:31:49;;;;;;;;;;;19.00;99.90;;;;;;4965527;28;19911;-79
2021/07/16 07:34:14;;;;;;;;;;;18.90;99.90;;;;;;4969032;28;19933;-81
2021/07/16 07:36:40;;;;;;;;;;;18.80;99.90;;;;;;4969573;28;19913;-81
2021/07/16 07:39:06;;;;;;;;;;;18.80;99.90;;;;;;4968557;28;19910;-81
2021/07/16 07:41:31;;;;;;;;;;;18.80;99.90;;;;;;4970789;28;19914;-81
2021/07/16 07:43:57;;;;;;;;;;;18.90;99.90;;;;;;4966741;28;19906;-80
2021/07/16 07:46:23;;;;;;;;;;;19.00;99.90;;;;;;4960917;28;20648;-81
2021/07/16 07:48:49;;;;;;;;;;;19.30;99.90;;;;;;4971923;28;19964;-80
2021/07/16 07:51:14;;;;;;;;;;;19.30;99.90;;;;;;4960900;28;19913;-81
2021/07/16 07:53:40;;;;;;;;;;;19.40;99.90;;;;;;4972170;28;19933;-82
2021/07/16 07:56:05;;;;;;;;;;;19.40;99.90;;;;;;4972522;28;19911;-81
2021/07/16 07:58:31;;;;;;;;;;;19.30;99.90;;;;;;4982481;28;19913;-80
2021/07/16 08:00:56;;;;;;;;;;;19.60;99.90;;;;;;4980071;28;19921;-80
2021/07/16 08:03:22;;;;;;;;;;;19.80;99.90;;;;;;4977398;28;19916;-81
2021/07/16 08:05:48;;;;;;;;;;;20.20;99.90;;;;;;4977311;28;19907;-80
2021/07/16 08:08:13;;;;;;;;;;;20.20;99.90;;;;;;4977418;28;19906;-82
2021/07/16 08:10:39;;;;;;;;;;;20.00;99.90;;;;;;4976060;28;20335;-80
2021/07/16 08:13:04;;;;;;;;;;;19.70;99.90;;;;;;4957529;28;19914;-80
2021/07/16 08:15:30;;;;;;;;;;;19.70;99.90;;;;;;4961999;28;19910;-80
2021/07/16 08:17:55;;;;;;;;;;;19.60;99.90;;;;;;4974581;28;19997;-80
2021/07/16 08:20:21;;;;;;;;;;;19.50;99.90;;;;;;4975946;28;19968;-79
2021/07/16 08:22:46;;;;;;;;;;;19.40;99.90;;;;;;4985812;28;19933;-82
2021/07/16 08:25:12;;;;;;;;;;;19.30;99.90;;;;;;4980581;28;19934;-83
2021/07/16 08:27:37;;;;;;;;;;;19.30;99.90;;;;;;4976219;28;20381;-79
2021/07/16 08:30:04;;;;;;;;;;;19.30;99.90;;;;;;4984322;28;19914;-81
2021/07/16 08:32:29;;;;;;;;;;;19.40;99.90;;;;;;4976143;28;19910;-80
2021/07/16 08:34:55;;;;;;;;;;;19.40;99.90;;;;;;4972399;28;20367;-80
2021/07/16 08:37:20;;;;;;;;;;;19.50;99.90;;;;;;4966145;28;19916;-80
2021/07/16 08:39:45;;;;;;;;;;;19.60;99.90;;;;;;4968667;28;20371;-80
2021/07/16 08:42:13;;;;;;;;;;;19.90;99.90;;;;;;4971460;28;19976;-80
2021/07/16 08:44:41;;;;;;;;;;;20.20;99.90;;;;;;4971165;28;20022;-80
2021/07/16 08:47:07;;;;;;;;;;;20.40;99.90;;;;;;4968563;28;19980;-79
2021/07/16 08:49:33;;;;;;;;;;;20.70;99.90;;;;;;4970248;28;20352;-79
2021/07/16 08:51:59;;;;;;;;;;;20.90;99.90;;;;;;4971672;28;19921;-80
2021/07/16 08:54:25;;;;;;;;;;;21.00;99.90;;;;;;4965475;28;20233;-79
2021/07/16 08:56:50;;;;;;;;;;;21.20;99.90;;;;;;4974793;28;19925;-81
2021/07/16 08:59:16;;;;;;;;;;;21.20;99.90;;;;;;4972449;28;19918;-81
2021/07/16 09:01:46;;;;;;;;;;;20.90;99.90;;;;;;4966157;28;20441;-80
2021/07/16 09:04:12;;;;;;;;;;;20.70;99.90;;;;;;4969790;28;19915;-80
2021/07/16 09:06:44;;;;;;;;;;;20.70;99.90;;;;;;4955898;28;19910;-80
2021/07/16 09:09:10;;;;;;;;;;;21.00;99.90;;;;;;4957063;29;19898;-85
2021/07/16 09:11:42;;;;;;;;;;;21.30;99.90;;;;;;4966586;28;20013;-81
2021/07/16 09:14:08;;;;;;;;;;;21.10;99.90;;;;;;4972806;28;20736;-80
2021/07/16 09:16:33;;;;;;;;;;;21.60;99.90;;;;;;4939367;29;19942;-81
2021/07/16 09:18:59;;;;;;;;;;;22.10;99.90;;;;;;4933893;29;20341;-81
2021/07/16 09:21:24;;;;;;;;;;;22.20;99.90;;;;;;4938760;29;19906;-80
2021/07/16 09:23:50;;;;;;;;;;;22.10;99.90;;;;;;4944807;28;19954;-81
2021/07/16 09:26:17;;;;;;;;;;;21.70;99.90;;;;;;4954688;28;19906;-80
2021/07/16 09:28:44;;;;;;;;;;;21.60;99.90;;;;;;4956798;28;19999;-80
2021/07/16 09:31:09;;;;;;;;;;;21.60;99.90;;;;;;4955578;29;19932;-80
2021/07/16 09:33:45;;;;;;;;;;;21.70;99.90;;;;;;4956612;28;19907;-79
2021/07/16 09:36:13;;;;;;;;;;;21.80;99.90;;;;;;4939945;28;19942;-79
2021/07/16 09:38:38;;;;;;;;;;;21.80;99.90;;;;;;4947604;29;19917;-80
2021/07/16 09:41:05;;;;;;;;;;;22.00;99.90;;;;;;4956537;28;19950;-79
2021/07/16 09:43:31;;;;;;;;;;;22.30;99.90;;;;;;4955036;28;19934;-81
2021/07/16 09:46:00;;;;;;;;;;;22.50;99.90;;;;;;4948908;29;20379;-80
2021/07/16 09:48:34;;;;;;;;;;;22.80;99.90;;;;;;4955080;29;19917;-80
2021/07/16 09:51:06;;;;;;;;;;;23.00;99.90;;;;;;4956019;29;20011;-81
2021/07/16 09:53:38;;;;;;;;;;;23.10;99.90;;;;;;4954016;29;19952;-80
2021/07/16 09:56:11;;;;;;;;;;;23.40;99.90;;;;;;4938904;29;19911;-80
2021/07/16 09:58:37;;;;;;;;;;;23.20;99.90;;;;;;4947516;29;20008;-80
2021/07/16 10:01:02;;;;;;;;;;;23.00;99.90;;;;;;4956342;28;19954;-80
2021/07/16 10:03:28;;;;;;;;;;;22.80;99.90;;;;;;4966729;28;20391;-80
2021/07/16 10:05:54;;;;;;;;;;;22.50;99.90;;;;;;4949806;29;20304;-80
2021/07/16 10:08:20;;;;;;;;;;;22.40;99.90;;;;;;4959647;28;19917;-80
2021/07/16 10:10:47;;;;;;;;;;;22.50;99.90;;;;;;4954309;28;19914;-81
2021/07/16 10:13:12;;;;;;;;;;;22.90;99.90;;;;;;4974252;28;20009;-82
2021/07/16 10:15:40;;;;;;;;;;;23.20;99.90;;;;;;4968360;28;20008;-81
2021/07/16 10:18:07;;;;;;;;;;;23.50;99.90;;;;;;4953250;29;20029;-81
2021/07/16 10:20:34;;;;;;;;;;;23.30;99.90;;;;;;4948978;28;19915;-81
2021/07/16 10:23:00;;;;;;;;;;;22.90;99.90;;;;;;4937533;29;20405;-81
2021/07/16 10:25:26;;;;;;;;;;;23.00;99.90;;;;;;4936435;29;19907;-81
2021/07/16 10:27:52;;;;;;;;;;;23.60;99.90;;;;;;4936124;29;20438;-82
2021/07/16 10:30:19;;;;;;;;;;;23.90;99.90;;;;;;4957667;28;19914;-81
2021/07/16 10:32:45;;;;;;;;;;;24.10;99.90;;;;;;4950985;28;19915;-82
2021/07/16 10:35:16;;;;;;;;;;;24.20;99.90;;;;;;4939510;29;19907;-82
2021/07/16 10:37:41;;;;;;;;;;;24.40;99.90;;;;;;4945497;28;20386;-82
2021/07/16 10:40:07;;;;;;;;;;;24.40;99.90;;;;;;4955205;29;19942;-82
2021/07/16 10:42:35;;;;;;;;;;;24.40;99.90;;;;;;4954128;29;19968;-81
2021/07/16 10:45:04;;;;;;;;;;;24.40;99.90;;;;;;4956383;28;19906;-81
2021/07/16 10:47:36;;;;;;;;;;;24.40;99.90;;;;;;4953887;28;19917;-81
2021/07/16 10:50:22;;;;;;;;;;;24.40;99.90;;;;;;4969761;28;20257;-81
2021/07/16 10:52:49;;;;;;;;;;;24.80;99.90;;;;;;4955553;28;19914;-82
2021/07/16 10:55:38;;;;;;;;;;;25.10;99.90;;;;;;4953590;28;19917;-82
2021/07/16 10:58:20;;;;;;;;;;;24.90;99.90;;;;;;4938355;28;19910;-81
2021/07/16 11:00:46;;;;;;;;;;;25.40;99.90;;;;;;4963279;28;20376;-82
2021/07/16 11:03:13;;;;;;;;;;;26.00;99.90;;;;;;4942366;29;19907;-81
2021/07/16 11:05:59;;;;;;;;;;;25.80;99.90;;;;;;4957322;28;19914;-82
2021/07/16 11:08:42;;;;;;;;;;;25.80;99.90;;;;;;4965410;28;20261;-82
2021/07/16 11:11:08;;;;;;;;;;;26.00;99.90;;;;;;4948381;28;19915;-82
2021/07/16 11:13:33;;;;;;;;;;;26.30;99.90;;;;;;4960457;28;20383;-81
2021/07/16 11:15:59;;;;;;;;;;;26.40;99.90;;;;;;4972743;28;19937;-82
2021/07/16 11:18:26;;;;;;;;;;;26.60;99.90;;;;;;4956813;28;19933;-82
2021/07/16 11:20:52;;;;;;;;;;;26.80;99.00;;;;;;4960111;28;19926;-82
2021/07/16 11:23:19;;;;;;;;;;;27.00;99.60;;;;;;4973594;28;19953;-82
2021/07/16 11:25:45;;;;;;;;;;;26.80;99.90;;;;;;4962447;28;19906;-81
2021/07/16 11:28:11;;;;;;;;;;;26.80;99.30;;;;;;4940069;28;20423;-81
2021/07/16 11:30:36;;;;;;;;;;;26.30;99.60;;;;;;4966455;28;19918;-82
2021/07/16 11:33:03;;;;;;;;;;;25.70;99.90;;;;;;4974890;28;20052;-82
2021/07/16 11:35:29;;;;;;;;;;;25.10;99.90;;;;;;4962755;28;19910;-82
2021/07/16 11:37:55;;;;;;;;;;;24.80;99.90;;;;;;4974470;28;19914;-82
2021/07/16 11:40:21;;;;;;;;;;;24.50;99.90;;;;;;4976031;28;19914;-82
2021/07/16 11:42:54;;;;;;;;;;;24.10;99.90;;;;;;4976872;28;19918;-82
2021/07/16 11:45:20;;;;;;;;;;;23.80;99.90;;;;;;4967207;28;19970;-82
2021/07/16 11:47:46;;;;;;;;;;;23.50;99.90;;;;;;4968059;28;20332;-82
2021/07/16 11:50:17;;;;;;;;;;;23.90;99.90;;;;;;4964018;28;19982;-80
2021/07/16 11:52:44;;;;;;;;;;;24.60;99.90;;;;;;4967553;28;20368;-82
2021/07/16 11:55:14;;;;;;;;;;;25.20;99.90;;;;;;4976595;28;19914;-82
2021/07/16 11:57:51;;;;;;;;;;;25.70;99.90;;;;;;4974771;28;19917;-81
2021/07/16 12:00:17;;;;;;;;;;;26.00;99.90;;;;;;4970091;28;19924;-81
2021/07/16 12:02:43;;;;;;;;;;;26.20;99.80;;;;;;4973740;28;19922;-82
2021/07/16 12:05:09;;;;;;;;;;;26.40;99.30;;;;;;4959867;28;19917;-82
2021/07/16 12:07:36;;;;;;;;;;;26.10;99.60;;;;;;4967680;28;19910;-81
2021/07/16 12:10:07;;;;;;;;;;;25.90;99.20;;;;;;4953223;28;19921;-81
2021/07/16 12:12:32;;;;;;;;;;;26.30;99.60;;;;;;4974431;28;19910;-82
2021/07/16 12:14:59;;;;;;;;;;;26.60;99.60;;;;;;4974068;28;19917;-82
2021/07/16 12:17:26;;;;;;;;;;;26.70;98.60;;;;;;4973273;28;20036;-83
2021/07/16 12:19:52;;;;;;;;;;;27.10;97.90;;;;;;4968315;28;19914;-81
2021/07/16 12:22:22;;;;;;;;;;;27.20;96.90;;;;;;4953855;29;19913;-84
2021/07/16 12:33:18;;;;;;;;;;;25.20;99.90;;;;;;4975306;28;19910;-88
2021/07/16 12:49:37;;;;;;;;;;;23.40;99.90;;;;;;4967306;28;19918;-89
2021/07/16 12:52:36;;;;;;;;;;;22.90;99.90;;;;;;4964146;28;19910;-94
2021/07/16 12:55:11;;;;;;;;;;;23.00;99.90;;;;;;4957313;28;19949;-90
2021/07/16 12:57:39;;;;;;;;;;;22.90;99.90;;;;;;4960155;28;20384;-90
2021/07/16 13:00:20;;;;;;;;;;;22.80;99.90;;;;;;4957183;29;19914;-90
2021/07/16 13:02:49;;;;;;;;;;;22.60;99.90;;;;;;4969454;28;19907;-89
2021/07/16 13:05:31;;;;;;;;;;;22.70;99.90;;;;;;4971131;28;19913;-90
2021/07/16 13:08:16;;;;;;;;;;;22.80;99.90;;;;;;4967346;28;19929;-90
2021/07/16 13:11:07;;;;;;;;;;;;;;;;;;;;;
2021/07/16 13:13:37;;;;;;;;;;;23.10;99.90;;;;;;4944168;29;19910;-90
2021/07/16 13:16:11;;;;;;;;;;;23.30;99.90;;;;;;4950826;29;19989;-91
2021/07/16 13:18:49;;;;;;;;;;;23.30;99.90;;;;;;4950556;29;19993;-91
2021/07/16 13:21:18;;;;;;;;;;;23.40;99.90;;;;;;4947650;29;19921;-91
2021/07/16 13:23:47;;;;;;;;;;;23.50;99.90;;;;;;4959799;29;19907;-91
2021/07/16 13:26:18;;;;;;;;;;;23.70;99.90;;;;;;4961614;29;19958;-91
2021/07/16 13:28:46;;;;;;;;;;;23.80;99.90;;;;;;4973468;28;19907;-90
2021/07/16 13:31:17;;;;;;;;;;;23.70;99.90;;;;;;4977879;28;19921;-90
2021/07/16 13:33:51;;;;;;;;;;;23.40;99.90;;;;;;4964533;28;20001;-91
2021/07/16 13:36:17;;;;;;;;;;;24.10;99.90;;;;;;4971720;28;19954;-91
2021/07/16 13:39:04;;;;;;;;;;;23.80;99.90;;;;;;4969996;28;19914;-92
2021/07/16 13:41:39;;;;;;;;;;;24.80;99.90;;;;;;4957716;28;20407;-91
2021/07/16 13:44:32;;;;;;;;;;;25.40;99.90;;;;;;4957838;28;20570;-92
2021/07/16 13:46:59;;;;;;;;;;;25.10;99.90;;;;;;4954339;28;19917;-91
2021/07/16 13:49:30;;;;;;;;;;;25.40;99.90;;;;;;4962199;28;20001;-91
2021/07/16 13:51:58;;;;;;;;;;;25.80;99.90;;;;;;4957307;28;19910;-91
2021/07/16 13:54:40;;;;;;;;;;;26.30;99.90;;;;;;4965550;28;19910;-92
2021/07/16 13:57:14;;;;;;;;;;;26.80;99.70;;;;;;4955359;28;19953;-92
2021/07/16 13:59:54;;;;;;;;;;;27.60;98.20;;;;;;4951094;28;20013;-92
2021/07/16 14:02:38;;;;;;;;;;;;;;;;;;;;;
2021/07/16 14:05:37;;;;;;;;;;;29.00;95.60;;;;;;4957606;28;20440;-93
2021/07/16 14:08:50;;;;;;;;;;;29.10;94.90;;;;;;4938863;29;19968;-93
2021/07/16 14:21:41;;;;;;;;;;;;;;;;;;;;;
2021/07/16 15:02:59;;;;;;;;;;;24.90;98.70;;;;;;3256279;26;19929;-90
2021/07/16 15:09:06;;;;;;;;;;;;;;;;;;;;;
2021/07/16 15:11:35;;;;;;;;;;;24.70;99.90;;;;;;4973095;28;19974;-90
2021/07/16 15:14:09;;;;;;;;;;;24.50;99.70;;;;;;4968993;28;19913;-90
2021/07/16 15:16:52;;;;;;;;;;;24.40;99.60;;;;;;4961120;28;19910;-90
2021/07/16 15:19:18;;;;;;;;;;;24.40;99.10;;;;;;4985153;28;19917;-90
2021/07/16 15:21:44;;;;;;;;;;;24.40;99.90;;;;;;4966733;28;19906;-91
2021/07/16 15:24:17;;;;;;;;;;;24.40;99.90;;;;;;4974857;28;19925;-91
2021/07/16 15:30:13;;;;;;;;;;;25.10;99.90;;;;;;4983106;28;19973;-91
2021/07/16 15:32:45;;;;;;;;;;;25.70;99.10;;;;;;4960018;28;19906;-91
2021/07/16 15:35:20;;;;;;;;;;;25.70;98.40;;;;;;4970659;28;20597;-91
2021/07/16 15:37:55;;;;;;;;;;;26.70;97.60;;;;;;4981833;28;19914;-90
2021/07/16 15:40:39;;;;;;;;;;;;;;;;;;;;;
2021/07/16 15:43:26;;;;;;;;;;;26.80;96.50;;;;;;4979493;28;19974;-90